Time;durP1;ratioP1;P1;durP2;ratioP2;P2;SDS_P1;SDS_P2;PMS_P1;PMS_P2;Temp;Humidity;BMP_temperature;BMP_pressure;BME280_temperature;BME280_humidity;BME280_pressure;Samples;Min_cycle;Max_cycle;Signal;HPM_P1;HPM_P2
2021/07/27 00:05:35;;;;;;;16.50;10.08;;;;;;;20.68;87.75;98678.05;4138043;85;21053;-81
2021/07/27 00:11:36;;;;;;;16.32;10.82;;;;;;;20.63;87.93;98704.42;4137398;85;21034;-81
2021/07/27 00:17:38;;;;;;;26.80;14.35;;;;;;;20.62;88.30;98732.69;4111322;85;21603;-80
2021/07/27 00:23:39;;;;;;;20.30;13.75;;;;;;;20.57;88.91;98767.41;4103251;85;21118;-80
2021/07/27 00:29:40;;;;;;;21.12;12.80;;;;;;;20.56;89.51;98768.64;4098624;86;21116;-80
2021/07/27 00:35:41;;;;;;;21.50;13.25;;;;;;;20.51;89.54;98744.77;4094444;85;21530;-80
2021/07/27 00:41:43;;;;;;;18.98;13.25;;;;;;;20.49;89.50;98721.59;4099635;86;21107;-80
2021/07/27 00:47:44;;;;;;;20.77;12.68;;;;;;;20.46;91.68;98707.80;4096287;86;21046;-81
2021/07/27 00:53:45;;;;;;;15.23;11.97;;;;;;;20.41;91.25;98688.89;4094304;86;21055;-81
2021/07/27 00:59:48;;;;;;;22.15;11.38;;;;;;;20.39;91.07;98685.17;4103731;85;21118;-80
2021/07/27 01:05:50;;;;;;;14.85;10.45;;;;;;;20.33;91.24;98684.19;4102906;85;21134;-81
2021/07/27 01:11:51;;;;;;;13.62;10.20;;;;;;;20.33;91.37;98669.53;4105661;85;21071;-81
2021/07/27 01:18:00;;;;;;;15.20;10.53;;;;;;;20.33;92.74;98673.70;4101578;85;21523;-80
2021/07/27 01:42:58;;;;;;;12.98;9.58;;;;;;;20.05;92.86;98660.85;4098334;86;21519;-80
2021/07/27 01:49:01;;;;;;;15.28;10.78;;;;;;;20.01;92.59;98689.34;4097963;85;21043;-81
2021/07/27 01:55:08;;;;;;;14.45;9.60;;;;;;;19.97;92.72;98695.64;4095922;85;21860;-81
2021/07/27 02:01:06;;;;;;;11.08;8.83;;;;;;;20.00;93.19;98701.69;4101609;86;21087;-81
2021/07/27 02:07:08;;;;;;;11.65;10.35;;;;;;;20.06;92.91;98740.83;4098022;86;21132;-81
2021/07/27 02:13:14;;;;;;;20.65;10.75;;;;;;;20.00;93.20;98757.86;4098738;85;21139;-81
2021/07/27 02:19:17;;;;;;;13.22;10.40;;;;;;;19.99;93.68;98797.39;4113050;85;21594;-81
2021/07/27 02:25:18;;;;;;;17.10;11.90;;;;;;;19.99;93.71;98817.44;4115868;85;21077;-80
2021/07/27 02:31:28;;;;;;;18.50;11.25;;;;;;;19.98;93.89;98843.04;4114944;85;20999;-80
2021/07/27 02:37:22;;;;;;;18.80;10.85;;;;;;;19.97;93.96;98819.27;4115981;85;21125;-81
2021/07/27 02:43:24;;;;;;;12.23;9.58;;;;;;;20.01;94.37;98849.09;4115828;85;21549;-80
2021/07/27 02:49:25;;;;;;;12.88;8.45;;;;;;;20.04;94.60;98851.03;4115004;85;21083;-81
2021/07/27 02:55:26;;;;;;;12.35;8.38;;;;;;;20.03;94.42;98817.50;4115215;85;21425;-81
2021/07/27 03:01:29;;;;;;;12.05;7.97;;;;;;;20.01;94.68;98798.33;4112817;85;21103;-81
2021/07/27 03:07:37;;;;;;;11.38;7.95;;;;;;;20.00;94.87;98781.47;4044676;86;21053;-82
2021/07/27 03:13:37;;;;;;;14.50;8.60;;;;;;;19.95;94.86;98782.80;4114525;85;21539;-81
2021/07/27 03:19:39;;;;;;;12.85;8.75;;;;;;;19.98;94.79;98789.49;4136863;85;21058;-81
2021/07/27 03:25:40;;;;;;;15.60;9.50;;;;;;;19.98;94.73;98783.31;4137071;85;21106;-82
2021/07/27 03:31:41;;;;;;;13.93;10.40;;;;;;;19.98;95.15;98778.38;4138101;85;21019;-82
2021/07/27 03:37:43;;;;;;;17.10;8.20;;;;;;;19.94;95.34;98760.42;4087383;85;37943;-81
2021/07/27 03:43:44;;;;;;;18.30;9.95;;;;;;;19.99;95.38;98775.76;4000710;88;21081;-81
2021/07/27 03:49:45;;;;;;;11.28;8.70;;;;;;;20.12;95.11;98757.11;3998881;86;21074;-84
2021/07/27 03:55:47;;;;;;;13.10;8.35;;;;;;;20.17;95.00;98769.09;3989030;88;21580;-82
2021/07/27 04:01:53;;;;;;;14.35;8.38;;;;;;;20.18;94.92;98753.97;3992214;88;21026;-82
2021/07/27 04:07:54;;;;;;;14.18;8.38;;;;;;;20.22;94.68;98755.25;4000867;88;21110;-83
2021/07/27 04:13:55;;;;;;;12.10;7.55;;;;;;;20.26;94.90;98762.25;3995344;88;21130;-82
2021/07/27 04:19:57;;;;;;;10.40;6.90;;;;;;;20.29;94.75;98757.80;3951291;87;21602;-84
2021/07/27 04:25:58;;;;;;;11.68;7.10;;;;;;;20.35;94.27;98740.12;3954899;88;21712;-82
2021/07/27 04:32:00;;;;;;;10.30;7.53;;;;;;;20.45;93.31;98739.61;3951912;88;21086;-82
2021/07/27 04:38:05;;;;;;;10.00;7.35;;;;;;;20.50;92.90;98734.88;3966563;88;21625;-82
2021/07/27 04:44:06;;;;;;;11.25;7.20;;;;;;;20.61;93.12;98738.09;3964189;87;21075;-81
2021/07/27 04:50:09;;;;;;;12.00;7.33;;;;;;;20.59;93.15;98740.53;3955474;88;21134;-82
2021/07/27 04:56:10;;;;;;;14.03;7.35;;;;;;;20.64;93.23;98734.41;3968260;88;21089;-81
2021/07/27 05:02:12;;;;;;;11.80;7.10;;;;;;;20.73;92.90;98729.72;3945812;88;21078;-82
2021/07/27 05:08:15;;;;;;;9.03;6.65;;;;;;;20.80;92.93;98714.17;3961895;88;21007;-81
2021/07/27 05:14:21;;;;;;;10.98;7.45;;;;;;;20.92;92.80;98706.38;3968167;88;21558;-81
2021/07/27 05:20:23;;;;;;;12.60;7.55;;;;;;;21.04;92.77;98702.83;3949698;88;21119;-82
2021/07/27 05:26:25;;;;;;;11.00;6.70;;;;;;;21.21;92.61;98695.06;3957172;88;21072;-82
2021/07/27 05:32:27;;;;;;;14.00;6.95;;;;;;;21.38;92.34;98701.38;3955098;88;21061;-81
2021/07/27 05:38:28;;;;;;;12.82;7.20;;;;;;;21.53;91.68;98696.82;3956385;88;21145;-82
2021/07/27 05:44:29;;;;;;;11.30;7.45;;;;;;;21.74;91.55;98706.38;3954468;87;21042;-82
2021/07/27 05:50:30;;;;;;;10.15;6.50;;;;;;;21.93;90.94;98704.48;3952701;87;21542;-82
2021/07/27 05:56:33;;;;;;;7.70;6.50;;;;;;;22.16;89.75;98710.32;3957119;88;21705;-82
2021/07/27 06:02:34;;;;;;;9.73;7.92;;;;;;;22.23;89.45;98719.02;3959551;88;21127;-82
2021/07/27 06:08:35;;;;;;;9.95;7.45;;;;;;;22.34;90.14;98717.38;3950730;88;21174;-82
2021/07/27 06:14:37;;;;;;;11.35;7.58;;;;;;;22.61;90.29;98726.45;3948111;88;21539;-82
2021/07/27 06:20:42;;;;;;;26.52;9.75;;;;;;;22.76;89.23;98760.89;3943177;88;21860;-82
2021/07/27 06:26:44;;;;;;;14.75;9.43;;;;;;;22.76;89.29;98778.42;3952406;88;21086;-82
2021/07/27 06:32:47;;;;;;;13.32;8.45;;;;;;;22.77;89.63;98796.70;3958744;88;21091;-82
2021/07/27 06:38:49;;;;;;;10.95;7.47;;;;;;;22.79;89.73;98812.98;3965100;88;21091;-82
2021/07/27 06:44:50;;;;;;;12.68;8.48;;;;;;;22.88;89.88;98811.64;3955217;88;21483;-82
2021/07/27 06:50:53;;;;;;;12.15;7.50;;;;;;;22.99;89.16;98814.77;3963513;88;21594;-83
2021/07/27 06:56:56;;;;;;;11.65;7.40;;;;;;;23.00;88.91;98827.47;3962838;88;21701;-82
2021/07/27 07:02:58;;;;;;;15.10;7.80;;;;;;;22.94;88.49;98837.70;3953306;88;21027;-83
2021/07/27 07:09:00;;;;;;;14.20;9.03;;;;;;;22.82;88.18;98858.11;3953835;88;21058;-82
2021/07/27 07:15:02;;;;;;;14.45;9.35;;;;;;;22.80;87.96;98849.44;3961907;88;21134;-83
2021/07/27 07:21:12;;;;;;;12.75;8.38;;;;;;;22.79;87.74;98859.81;3982808;88;21087;-81
2021/07/27 07:27:14;;;;;;;12.37;8.60;;;;;;;22.79;87.73;98863.22;3994763;88;21087;-82
2021/07/27 07:33:16;;;;;;;13.38;8.58;;;;;;;22.68;87.58;98873.41;4000850;88;21043;-81
2021/07/27 07:39:18;;;;;;;18.60;8.68;;;;;;;22.52;87.48;98888.98;3881967;86;29992;-82
2021/07/27 07:45:20;;;;;;;12.50;8.73;;;;;;;22.50;87.51;98904.61;3864411;91;21048;-82
2021/07/27 07:51:22;;;;;;;15.38;7.90;;;;;;;22.51;87.57;98901.97;3871381;90;21002;-81
2021/07/27 07:57:26;;;;;;;9.95;7.08;;;;;;;22.53;87.76;98898.14;3867447;90;21125;-82
2021/07/27 08:03:28;;;;;;;11.68;7.83;;;;;;;22.60;87.65;98897.84;3872658;89;21088;-83
2021/07/27 08:09:29;;;;;;;14.03;7.62;;;;;;;22.76;87.58;98913.76;3872521;89;21013;-82
2021/07/27 08:15:30;;;;;;;15.72;8.05;;;;;;;22.95;86.76;98913.20;3875041;90;21599;-83
2021/07/27 08:21:34;;;;;;;15.45;8.53;;;;;;;23.24;86.58;98908.80;3833694;91;21601;-82
2021/07/27 08:27:43;;;;;;;12.85;8.40;;;;;;;23.58;86.41;98908.43;3814228;91;21044;-82
2021/07/27 08:33:45;;;;;;;14.68;9.60;;;;;;;23.85;85.83;98922.44;3816729;92;21578;-82
2021/07/27 08:39:46;;;;;;;14.80;8.80;;;;;;;24.05;85.31;98929.14;3838213;92;21135;-83
2021/07/27 08:45:53;;;;;;;16.70;10.20;;;;;;;24.21;85.22;98926.00;3832106;90;21052;-84
2021/07/27 08:52:02;;;;;;;15.58;10.40;;;;;;;24.32;84.34;98932.53;3845224;91;21639;-83
2021/07/27 08:58:04;;;;;;;14.50;10.60;;;;;;;24.44;83.81;98938.57;3843546;92;21139;-83
2021/07/27 09:04:05;;;;;;;16.48;10.08;;;;;;;24.68;82.82;98940.25;3873073;89;58069;-84
2021/07/27 09:10:22;;;;;;;13.10;9.55;;;;;;;24.80;82.58;98948.30;3963757;89;21998;-83
2021/07/27 09:16:24;;;;;;;17.45;9.43;;;;;;;24.78;82.31;98946.59;3963321;89;21091;-83
2021/07/27 09:22:26;;;;;;;13.80;9.93;;;;;;;24.71;82.23;98946.94;3879406;90;21114;-83
2021/07/27 09:28:35;;;;;;;13.93;9.38;;;;;;;24.57;82.02;98939.93;3883142;90;21031;-83
2021/07/27 09:34:37;;;;;;;14.07;10.68;;;;;;;24.39;82.00;98952.57;3888438;90;22206;-83
2021/07/27 09:41:05;;;;;;;12.37;10.30;;;;;;;24.30;81.89;98961.59;3896202;89;21462;-83
2021/07/27 09:47:10;;;;;;;21.42;12.03;;;;;;;24.23;82.06;98961.89;3886239;89;21064;-86
2021/07/27 09:53:12;;;;;;;14.20;10.53;;;;;;;24.23;81.99;98970.28;3891296;90;21020;-83
2021/07/27 09:59:29;;;;;;;14.15;11.05;;;;;;;24.36;81.85;98971.70;3874593;90;21067;-83
2021/07/27 10:05:34;;;;;;;;;;;;;;;24.59;81.31;98971.03;3898085;89;21095;-82
2021/07/27 10:12:18;;;;;;;16.87;11.33;;;;;;;24.55;80.84;98980.84;3887861;89;20516;-83
2021/07/27 10:18:35;;;;;;;22.35;12.68;;;;;;;24.51;81.17;98971.20;3895942;89;21067;-82
2021/07/27 10:24:57;;;;;;;17.65;12.25;;;;;;;24.57;80.57;98962.31;3931570;89;21041;-83
2021/07/27 10:31:12;;;;;;;16.10;12.33;;;;;;;24.77;80.35;98952.05;3941302;89;22276;-83
2021/07/27 10:37:42;;;;;;;16.50;11.55;;;;;;;25.12;80.19;98957.34;3937578;89;22202;-84
2021/07/27 10:43:44;;;;;;;13.43;10.98;;;;;;;26.00;80.06;98949.55;3936238;89;21011;-83
2021/07/27 10:50:10;;;;;;;12.25;10.05;;;;;;;26.81;78.19;98944.44;3925144;89;21107;-83
2021/07/27 10:56:11;;;;;;;13.58;10.53;;;;;;;27.25;77.04;98936.06;3937250;89;21000;-83
2021/07/27 11:02:48;;;;;;;12.68;9.50;;;;;;;27.91;76.17;98950.31;3942659;89;21011;-83
2021/07/27 11:09:12;;;;;;;;;;;;;;;28.30;74.03;98953.59;3914080;87;21032;-83
2021/07/27 11:15:28;;;;;;;12.23;10.15;;;;;;;28.50;71.58;98950.09;3911710;89;20224;-84
2021/07/27 11:21:29;;;;;;;11.05;9.93;;;;;;;28.74;73.54;98941.36;3880350;90;21092;-84
2021/07/27 11:27:33;;;;;;;13.18;9.53;;;;;;;29.47;72.32;98926.56;3917136;90;21584;-83
2021/07/27 11:33:34;;;;;;;10.43;8.00;;;;;;;29.80;71.08;98923.31;3929095;89;21058;-83
2021/07/27 11:39:40;;;;;;;10.40;7.80;;;;;;;30.22;68.79;98901.27;3929362;89;21059;-85
2021/07/27 11:45:45;;;;;;;9.88;8.03;;;;;;;30.52;67.35;98893.88;3932829;89;21028;-85
2021/07/27 11:51:47;;;;;;;10.13;7.53;;;;;;;30.51;66.83;98895.92;3946164;88;21623;-86
2021/07/27 11:58:15;;;;;;;8.70;7.10;;;;;;;30.83;66.81;98899.30;3923836;89;21458;-86
2021/07/27 12:04:19;;;;;;;9.50;7.15;;;;;;;30.61;64.55;98909.78;3950108;89;21114;-86
2021/07/27 12:10:24;;;;;;;6.80;5.83;;;;;;;30.50;64.46;98907.73;3923823;89;21015;-84
2021/07/27 12:16:25;;;;;;;9.93;7.47;;;;;;;30.18;62.74;98904.96;3954791;89;21877;-84
2021/07/27 12:22:26;;;;;;;11.93;7.80;;;;;;;29.68;62.35;98905.43;3916317;89;21076;-84
2021/07/27 12:28:31;;;;;;;8.50;7.33;;;;;;;29.20;62.23;98895.52;3883402;91;21067;-84
2021/07/27 12:34:32;;;;;;;8.93;7.00;;;;;;;28.76;62.10;98880.45;3819795;92;21041;-85
2021/07/27 12:40:34;;;;;;;11.25;8.28;;;;;;;28.53;62.81;98878.73;3889942;89;21136;-85
2021/07/27 12:46:35;;;;;;;10.30;7.10;;;;;;;28.50;63.26;98872.67;3841545;90;21097;-84
2021/07/27 12:52:36;;;;;;;8.23;7.35;;;;;;;28.50;62.84;98867.69;3880133;89;21031;-84
2021/07/27 12:58:40;;;;;;;11.10;8.08;;;;;;;28.39;63.07;98868.34;3841424;91;21117;-84
2021/07/27 13:04:49;;;;;;;8.93;8.07;;;;;;;28.32;62.61;98879.25;3818267;91;21109;-83
2021/07/27 13:11:47;;;;;;;10.03;8.35;;;;;;;28.20;62.84;98884.64;3752989;93;21109;-84
2021/07/27 13:17:50;;;;;;;11.83;8.17;;;;;;;28.13;62.43;98878.06;3805549;90;21039;-85
2021/07/27 13:24:03;;;;;;;10.00;7.08;;;;;;;28.10;63.78;98874.81;3879931;89;21044;-85
2021/07/27 13:30:17;;;;;;;9.38;6.97;;;;;;;28.05;63.87;98861.48;3941027;88;21066;-84
2021/07/27 13:36:19;;;;;;;8.03;6.53;;;;;;;28.02;63.29;98863.22;3936545;89;22280;-84
2021/07/27 13:42:20;;;;;;;8.00;6.40;;;;;;;28.01;63.30;98870.75;3930072;89;21099;-85
2021/07/27 13:48:21;;;;;;;8.40;6.45;;;;;;;27.99;62.99;98874.06;3935212;89;21055;-85
2021/07/27 13:54:24;;;;;;;9.73;7.00;;;;;;;27.89;63.17;98888.78;3928445;89;21075;-83
2021/07/27 14:00:30;;;;;;;8.08;6.20;;;;;;;27.94;62.68;98884.62;3899864;89;21067;-84
2021/07/27 14:06:38;;;;;;;6.37;5.70;;;;;;;27.92;62.28;98866.07;3834353;91;21100;-84
2021/07/27 14:12:39;;;;;;;6.95;5.45;;;;;;;27.86;62.29;98847.55;3884749;90;21083;-85
2021/07/27 14:19:02;;;;;;;7.70;5.75;;;;;;;27.91;62.17;98827.94;3930752;89;21074;-85
2021/07/27 14:25:18;;;;;;;6.75;5.90;;;;;;;27.92;62.21;98825.28;3865730;91;21075;-84
2021/07/27 14:31:20;;;;;;;5.50;4.75;;;;;;;27.89;62.20;98835.34;3931772;89;21067;-85
2021/07/27 14:37:44;;;;;;;6.72;4.83;;;;;;;27.87;60.81;98840.02;3941679;88;21808;-85
2021/07/27 14:43:51;;;;;;;5.90;4.90;;;;;;;27.81;60.82;98824.35;3925171;88;21480;-85
2021/07/27 14:49:57;;;;;;;7.22;5.10;;;;;;;27.70;61.13;98817.20;3943357;88;21099;-83
2021/07/27 14:56:00;;;;;;;;;;;;;;;27.70;60.71;98828.45;3940876;89;21095;-84
2021/07/27 15:02:01;;;;;;;6.53;4.65;;;;;;;27.76;60.00;98832.09;3933315;89;20467;-83
2021/07/27 15:08:04;;;;;;;5.80;4.42;;;;;;;27.80;59.40;98822.16;3936886;89;21011;-85
2021/07/27 15:14:12;;;;;;;7.05;4.70;;;;;;;27.76;59.33;98821.63;3937872;88;21070;-84
2021/07/27 15:20:15;;;;;;;5.15;4.65;;;;;;;27.77;59.19;98818.19;3936016;89;21079;-84
2021/07/27 15:26:18;;;;;;;8.48;5.47;;;;;;;27.72;59.65;98827.33;3956544;89;21098;-84
2021/07/27 15:32:19;;;;;;;7.67;5.20;;;;;;;27.60;59.72;98837.04;3948427;89;21046;-84
2021/07/27 15:38:34;;;;;;;7.92;5.33;;;;;;;27.49;59.88;98840.34;3944891;89;21078;-83
2021/07/27 15:44:36;;;;;;;6.25;5.40;;;;;;;27.41;60.05;98843.43;3948467;89;21609;-83
2021/07/27 15:50:40;;;;;;;7.65;5.50;;;;;;;27.31;59.90;98846.26;3935092;89;21105;-83
2021/07/27 15:56:56;;;;;;;6.47;5.15;;;;;;;27.23;60.30;98847.28;3942204;89;21050;-84
2021/07/27 16:02:57;;;;;;;7.85;4.78;;;;;;;26.95;60.38;98827.83;3947156;89;21122;-84
2021/07/27 16:09:01;;;;;;;6.50;4.50;;;;;;;26.92;60.39;98840.05;3948140;89;21507;-83
2021/07/27 16:15:02;;;;;;;5.22;4.25;;;;;;;26.84;59.71;98831.12;3957463;89;21094;-84
2021/07/27 16:21:04;;;;;;;6.78;4.92;;;;;;;26.74;59.68;98838.11;3938376;89;21698;-84
2021/07/27 16:27:05;;;;;;;6.87;4.78;;;;;;;26.70;59.26;98833.34;3893646;90;21099;-84
2021/07/27 16:33:07;;;;;;;8.45;5.40;;;;;;;26.62;59.24;98834.34;3911772;90;21008;-84
2021/07/27 16:39:17;;;;;;;5.67;5.08;;;;;;;26.54;59.32;98835.22;3893962;90;21070;-84
2021/07/27 16:45:18;;;;;;;7.40;4.92;;;;;;;26.48;59.27;98837.16;3897029;90;21544;-83
2021/07/27 16:51:33;;;;;;;7.92;4.87;;;;;;;26.39;59.58;98835.23;3909902;90;21547;-83
2021/07/27 16:57:34;;;;;;;5.85;5.00;;;;;;;26.31;59.74;98826.30;3899659;90;21119;-84
2021/07/27 17:03:35;;;;;;;8.50;5.30;;;;;;;26.19;59.95;98839.35;3900687;90;21122;-84
2021/07/27 17:09:37;;;;;;;4.83;4.33;;;;;;;26.12;59.99;98842.55;3915421;89;21935;-85
2021/07/27 17:15:38;;;;;;;7.33;5.00;;;;;;;26.12;59.99;98842.55;3909717;90;21063;-84
2021/07/27 17:21:40;;;;;;;5.37;4.70;;;;;;;26.00;60.01;98834.55;3931482;89;21074;-84
2021/07/27 17:27:43;;;;;;;6.28;5.22;;;;;;;25.88;59.87;98837.61;3924087;89;21618;-84
2021/07/27 17:33:45;;;;;;;6.50;5.62;;;;;;;25.72;59.82;98833.85;3947294;89;21473;-84
2021/07/27 17:39:46;;;;;;;11.00;6.03;;;;;;;25.50;60.33;98840.41;3938657;89;21698;-84
2021/07/27 17:53:15;;;;;;;10.03;6.30;;;;;;;25.05;62.18;98840.08;3935626;89;21604;-83
2021/07/27 18:06:21;;;;;;;10.80;6.60;;;;;;;24.68;63.93;98840.88;3924066;89;21090;-84
2021/07/27 18:19:10;;;;;;;12.15;6.55;;;;;;;24.34;65.45;98844.09;3951284;89;21070;-83
2021/07/27 18:25:24;;;;;;;12.07;6.85;;;;;;;24.12;66.34;98849.11;3941227;89;21142;-84
2021/07/27 18:31:26;;;;;;;13.22;7.42;;;;;;;23.99;67.36;98849.91;3943082;88;21059;-84
2021/07/27 18:37:27;;;;;;;8.90;7.55;;;;;;;23.90;68.16;98842.15;3932838;89;21067;-84
2021/07/27 18:43:49;;;;;;;13.83;7.85;;;;;;;23.84;68.87;98841.20;3931614;89;21123;-84
2021/07/27 18:49:59;;;;;;;12.98;8.20;;;;;;;23.72;69.48;98843.55;3934694;89;21062;-84
2021/07/27 18:56:28;;;;;;;15.03;9.05;;;;;;;23.45;70.27;98852.70;3941207;89;21039;-84
2021/07/27 19:02:29;;;;;;;16.12;10.45;;;;;;;23.18;70.85;98856.20;3940748;89;21031;-84
2021/07/27 19:08:30;;;;;;;14.43;10.48;;;;;;;23.00;71.50;98865.16;3935972;89;21019;-84
2021/07/27 19:21:26;;;;;;;18.40;13.20;;;;;;;22.72;72.38;98860.09;3934033;89;21094;-83
2021/07/27 19:27:48;;;;;;;18.07;11.80;;;;;;;22.62;72.70;98864.09;3886276;90;21138;-84
2021/07/27 19:33:52;;;;;;;16.50;12.30;;;;;;;22.46;73.35;98868.47;3896055;90;21150;-83
2021/07/27 19:54:07;;;;;;;;;;;;;;;22.01;75.12;98859.06;3899439;90;21519;-83
2021/07/27 20:00:13;;;;;;;20.65;13.43;;;;;;;21.85;76.47;98860.03;3911304;90;20181;-83
2021/07/27 20:06:15;;;;;;;17.37;14.03;;;;;;;21.67;75.74;98869.62;3902240;90;21055;-83
2021/07/27 20:12:16;;;;;;;22.95;14.20;;;;;;;21.61;76.29;98869.41;3894467;90;21094;-83
2021/07/27 20:18:17;;;;;;;16.10;13.08;;;;;;;21.48;76.74;98882.63;3917813;90;22165;-83
2021/07/27 20:24:19;;;;;;;22.22;13.13;;;;;;;21.40;77.16;98881.31;3914227;89;21567;-83
2021/07/27 20:30:31;;;;;;;19.92;12.33;;;;;;;21.34;77.79;98877.55;3916762;90;21610;-84
2021/07/27 20:36:32;;;;;;;21.80;12.73;;;;;;;21.20;78.36;98886.38;3919458;89;21031;-84
2021/07/27 20:42:37;;;;;;;21.15;13.20;;;;;;;21.16;79.15;98889.87;3908779;90;21086;-82
2021/07/27 20:48:41;;;;;;;19.70;12.55;;;;;;;21.10;79.32;98897.23;3897298;89;21107;-83
2021/07/27 20:54:46;;;;;;;20.25;12.93;;;;;;;21.00;80.02;98902.52;3915400;89;21075;-83
2021/07/27 21:00:47;;;;;;;20.60;12.78;;;;;;;20.87;80.35;98905.91;3904395;89;21087;-83
2021/07/27 21:07:12;;;;;;;;;;;;;;;;;;;;;
2021/07/27 21:13:01;;;;;;;19.75;14.95;;;;;;;20.62;81.10;98907.89;3899268;89;21120;-83
2021/07/27 21:19:03;;;;;;;20.25;14.30;;;;;;;20.50;81.59;98913.59;3899059;90;21126;-83
2021/07/27 21:25:07;;;;;;;16.27;13.28;;;;;;;20.42;82.04;98919.83;3929523;89;21122;-83
2021/07/27 21:31:09;;;;;;;22.52;13.80;;;;;;;20.43;82.57;98924.16;3956940;89;21095;-86
2021/07/27 21:37:11;;;;;;;23.32;14.30;;;;;;;20.38;82.90;98929.66;3954077;89;21058;-83
2021/07/27 21:43:12;;;;;;;20.40;15.45;;;;;;;20.30;83.10;98927.54;3962137;89;22341;-84
2021/07/27 21:49:14;;;;;;;28.35;15.43;;;;;;;20.23;83.46;98926.34;3949902;89;21084;-84
2021/07/27 21:55:16;;;;;;;25.12;16.12;;;;;;;20.18;83.82;98928.45;3957882;88;21083;-82
2021/07/27 22:01:27;;;;;;;21.02;15.55;;;;;;;20.09;84.13;98926.87;3962148;89;21098;-83
2021/07/27 22:07:28;;;;;;;23.75;14.33;;;;;;;20.04;84.57;98928.83;3952804;88;21124;-83
2021/07/27 22:13:32;;;;;;;18.73;13.88;;;;;;;19.92;84.80;98917.03;3951429;89;21071;-83
2021/07/27 22:19:35;;;;;;;21.00;13.93;;;;;;;19.85;85.32;98925.58;3956200;89;21027;-82
2021/07/27 22:25:36;;;;;;;18.50;12.78;;;;;;;19.79;85.56;98910.67;3959614;88;21043;-82
2021/07/27 22:31:40;;;;;;;21.15;15.38;;;;;;;19.82;86.23;98905.63;3955243;89;21078;-83
2021/07/27 22:37:50;;;;;;;19.35;13.78;;;;;;;19.79;86.23;98901.55;3934998;89;21133;-83
2021/07/27 22:43:59;;;;;;;17.62;12.88;;;;;;;19.68;86.51;98903.23;3952018;89;21063;-82
2021/07/27 22:50:03;;;;;;;17.75;13.53;;;;;;;19.60;86.92;98892.74;3940035;88;21144;-82
2021/07/27 22:56:05;;;;;;;18.60;14.20;;;;;;;19.55;87.78;98898.81;3940843;88;21117;-83
2021/07/27 23:02:06;;;;;;;19.75;15.40;;;;;;;19.63;87.85;98898.20;3952158;88;21066;-84
2021/07/27 23:08:08;;;;;;;19.37;13.62;;;;;;;19.66;88.02;98900.11;3954096;89;21055;-84
2021/07/27 23:14:12;;;;;;;16.97;13.95;;;;;;;19.60;87.90;98887.19;3963385;89;21047;-83
2021/07/27 23:20:15;;;;;;;16.93;14.28;;;;;;;19.52;88.36;98876.88;3948913;88;21623;-82
2021/07/27 23:26:36;;;;;;;19.45;15.13;;;;;;;19.52;88.79;98868.55;3956496;89;21649;-82
2021/07/27 23:32:27;;;;;;;17.90;14.13;;;;;;;19.52;88.95;98859.44;3949675;88;21118;-82
2021/07/27 23:38:33;;;;;;;20.30;13.65;;;;;;;19.54;89.32;98852.84;3953989;88;21078;-83
2021/07/27 23:44:38;;;;;;;17.17;13.13;;;;;;;19.50;89.27;98854.33;3956603;89;21069;-82
2021/07/27 23:50:39;;;;;;;19.65;12.55;;;;;;;19.49;89.63;98856.15;3947464;89;21453;-82
2021/07/27 23:56:41;;;;;;;22.30;14.28;;;;;;;19.47;89.87;98853.81;3958211;89;21074;-82
